createdAt,value
2022-08-19T00:05:00.797Z,6.03
2022-08-19T00:10:10.421Z,6.90
2022-08-19T00:15:20.780Z,6.30
2022-08-19T00:20:30.019Z,5.68
2022-08-19T00:25:34.718Z,6.20
2022-08-19T00:30:39.201Z,6.82
2022-08-19T00:35:44.789Z,7.50
2022-08-19T00:40:49.960Z,5.80
2022-08-19T00:45:54.599Z,5.75
2022-08-19T00:51:02.199Z,5.25
2022-08-19T00:56:07.718Z,5.03
2022-08-19T01:01:13.611Z,4.85
2022-08-19T01:06:20.078Z,4.00
2022-08-19T01:11:27.178Z,4.13
2022-08-19T01:16:34.973Z,3.90
2022-08-19T01:21:49.596Z,4.10
2022-08-19T01:26:55.790Z,4.10
2022-08-19T01:32:03.324Z,5.40
2022-08-19T01:37:12.098Z,5.85
2022-08-19T01:42:17.870Z,5.57
2022-08-19T01:47:22.123Z,5.35
2022-08-19T01:52:26.390Z,6.80
2022-08-19T01:57:32.242Z,7.85
2022-08-19T02:02:36.621Z,6.10
2022-08-19T02:07:42.954Z,6.60
2022-08-19T02:12:50.541Z,6.37
2022-08-19T02:17:55.215Z,7.85
2022-08-19T02:22:59.579Z,8.18
2022-08-19T02:28:06.890Z,7.77
2022-08-19T02:33:11.273Z,8.00
2022-08-19T02:38:29.514Z,8.90
2022-08-19T02:43:37.364Z,7.30
2022-08-19T02:48:42.954Z,7.85
2022-08-19T02:53:47.222Z,7.80
2022-08-19T02:58:53.059Z,7.60
2022-08-19T03:04:02.446Z,8.55
2022-08-19T03:09:06.862Z,7.88
2022-08-19T03:14:14.008Z,7.50
2022-08-19T03:19:22.086Z,8.10
2022-08-19T03:24:26.749Z,8.15
2022-08-19T03:29:34.251Z,8.55
2022-08-19T03:34:47.703Z,8.77
2022-08-19T03:39:52.154Z,8.23
2022-08-19T03:44:59.285Z,7.03
2022-08-19T03:50:04.446Z,7.55
2022-08-19T03:55:10.471Z,7.60
2022-08-19T04:00:18.391Z,7.93
2022-08-19T04:05:24.699Z,8.48
2022-08-19T04:10:32.303Z,8.55
2022-08-19T04:15:42.948Z,7.70
2022-08-19T04:20:49.691Z,7.90
2022-08-19T04:25:53.951Z,6.95
2022-08-19T04:30:59.930Z,6.70
2022-08-19T04:36:05.164Z,7.10
2022-08-19T04:41:27.236Z,6.10
2022-08-19T04:46:40.431Z,7.35
2022-08-19T04:51:56.874Z,7.93
2022-08-19T04:57:01.254Z,7.25
2022-08-19T05:02:11.486Z,7.65
2022-08-19T05:07:17.700Z,6.90
2022-08-19T05:12:22.066Z,7.10
2022-08-19T05:17:38.759Z,8.30
2022-08-19T05:22:46.628Z,9.18
2022-08-19T05:27:51.509Z,10.48
2022-08-19T05:32:57.614Z,10.00
2022-08-19T05:38:02.312Z,9.97
2022-08-19T05:43:10.518Z,9.40
2022-08-19T05:48:21.425Z,10.13
2022-08-19T05:53:30.073Z,10.00
2022-08-19T05:58:37.487Z,10.50
2022-08-19T06:03:44.867Z,11.45
2022-08-19T06:08:51.787Z,10.15
2022-08-19T06:14:02.319Z,10.25
2022-08-19T06:19:19.345Z,10.48
2022-08-19T06:24:27.031Z,10.23
2022-08-19T06:29:33.536Z,11.35
2022-08-19T06:34:40.676Z,11.07
2022-08-19T06:39:47.077Z,11.27
2022-08-19T06:44:53.204Z,10.82
2022-08-19T06:50:03.916Z,11.90
2022-08-19T06:55:10.752Z,10.65
2022-08-19T07:00:16.039Z,11.65
2022-08-19T07:05:21.999Z,12.05
2022-08-19T07:10:26.713Z,11.97
2022-08-19T07:15:32.008Z,10.30
2022-08-19T07:20:38.080Z,11.60
2022-08-19T07:25:44.644Z,10.60
2022-08-19T07:30:56.821Z,10.00
2022-08-19T07:36:02.743Z,10.80
2022-08-19T07:41:07.614Z,11.77
2022-08-19T07:46:14.357Z,12.15
2022-08-19T07:51:36.523Z,12.70
2022-08-19T07:56:41.734Z,12.88
2022-08-19T08:01:46.599Z,12.25
2022-08-19T08:07:10.611Z,12.07
2022-08-19T08:12:33.474Z,13.25
2022-08-19T08:17:49.297Z,12.93
2022-08-19T08:23:14.830Z,12.17
2022-08-19T08:28:20.145Z,12.18
2022-08-19T08:33:32.858Z,12.23
2022-08-19T08:38:41.714Z,11.17
2022-08-19T08:43:52.116Z,10.77
2022-08-19T08:49:06.597Z,11.10
2022-08-19T08:54:16.213Z,9.60
2022-08-19T08:59:30.385Z,11.18
2022-08-19T09:04:37.754Z,10.05
2022-08-19T09:09:49.910Z,10.07
2022-08-19T09:14:59.551Z,9.75
2022-08-19T09:20:15.959Z,10.40
2022-08-19T09:25:26.913Z,11.68
2022-08-19T09:30:36.952Z,9.63
2022-08-19T09:35:50.105Z,10.25
2022-08-19T09:41:05.683Z,11.13
2022-08-19T09:46:18.093Z,12.27
2022-08-19T09:51:26.932Z,12.27
2022-08-19T09:56:34.577Z,12.95
2022-08-19T10:01:39.037Z,12.70
2022-08-19T10:06:46.723Z,14.20
2022-08-19T10:11:54.646Z,14.13
2022-08-19T10:17:01.235Z,13.43
2022-08-19T10:22:15.320Z,14.60
2022-08-19T10:27:20.990Z,15.27
2022-08-19T10:32:33.765Z,16.08
2022-08-19T10:37:56.695Z,14.10
2022-08-19T10:43:03.877Z,16.23
2022-08-19T10:48:08.327Z,16.37
2022-08-19T10:53:16.981Z,15.77
2022-08-19T10:58:26.133Z,14.90
2022-08-19T11:03:31.588Z,17.55
2022-08-19T11:08:38.449Z,16.02
2022-08-19T11:13:45.372Z,16.58
2022-08-19T11:18:53.802Z,15.57
2022-08-19T11:24:06.772Z,16.65
2022-08-19T11:29:15.715Z,15.95
2022-08-19T11:34:25.229Z,16.37
2022-08-19T11:39:36.537Z,17.05
2022-08-19T11:44:42.708Z,15.15
2022-08-19T11:49:48.584Z,18.70
2022-08-19T11:54:52.997Z,20.10
2022-08-19T11:59:58.991Z,17.17
2022-08-19T12:05:06.163Z,15.47
2022-08-19T12:10:13.739Z,14.85
2022-08-19T12:15:24.370Z,15.03
2022-08-19T12:20:28.818Z,15.03
2022-08-19T12:25:35.602Z,15.68
2022-08-19T12:30:41.683Z,15.90
2022-08-19T12:35:48.172Z,14.30
2022-08-19T12:40:57.081Z,14.37
2022-08-19T12:46:07.026Z,18.27
2022-08-19T12:51:19.055Z,16.83
2022-08-19T12:56:23.732Z,18.80
2022-08-19T13:01:33.687Z,19.47
2022-08-19T13:06:38.457Z,21.27
2022-08-19T13:11:44.374Z,23.67
2022-08-19T13:16:50.087Z,26.33
2022-08-19T13:22:00.117Z,26.73
2022-08-19T13:27:05.362Z,25.13
2022-08-19T13:32:29.254Z,27.10
2022-08-19T13:37:43.814Z,27.00
2022-08-19T13:42:52.219Z,22.05
2022-08-19T13:48:01.009Z,26.00
2022-08-19T13:53:06.055Z,25.75
2022-08-19T13:58:12.663Z,25.65
2022-08-19T14:03:18.902Z,24.23
2022-08-19T14:08:24.622Z,24.75
2022-08-19T14:13:28.979Z,23.88
2022-08-19T14:18:34.623Z,19.60
2022-08-19T14:23:38.855Z,20.33
2022-08-19T14:28:44.380Z,20.52
2022-08-19T14:33:51.346Z,17.27
2022-08-19T14:38:55.866Z,18.13
2022-08-19T14:44:02.345Z,19.42
2022-08-19T14:49:09.416Z,17.17
2022-08-19T14:54:14.184Z,16.08
2022-08-19T14:59:19.276Z,13.23
2022-08-19T15:04:25.265Z,10.83
2022-08-19T15:09:29.890Z,10.45
2022-08-19T15:14:35.572Z,9.65
2022-08-19T15:19:41.458Z,10.80
2022-08-19T15:24:47.902Z,10.63
2022-08-19T15:30:01.041Z,12.52
2022-08-19T15:35:09.726Z,12.87
2022-08-19T15:40:14.598Z,12.57
2022-08-19T15:45:22.847Z,13.80
2022-08-19T15:50:31.845Z,18.33
2022-08-19T15:55:44.165Z,23.10
2022-08-19T16:01:06.256Z,22.58
2022-08-19T16:06:28.009Z,23.88
2022-08-19T16:11:39.500Z,24.33
2022-08-19T16:16:47.044Z,23.75
2022-08-19T16:21:58.311Z,25.60
2022-08-19T16:27:02.710Z,25.27
2022-08-19T16:32:12.839Z,24.43
2022-08-19T16:37:21.646Z,22.90
2022-08-19T16:42:27.269Z,21.63
2022-08-19T16:47:31.939Z,22.02
2022-08-19T16:52:39.195Z,19.80
2022-08-19T16:57:44.517Z,19.95
2022-08-19T17:02:49.047Z,23.07
2022-08-19T17:07:54.665Z,20.97
2022-08-19T17:12:59.004Z,22.30
2022-08-19T17:18:05.895Z,20.37
2022-08-19T17:23:14.580Z,20.58
2022-08-19T17:28:23.848Z,18.73
2022-08-19T17:33:28.527Z,23.90
2022-08-19T17:38:38.703Z,26.50
2022-08-19T17:43:44.056Z,28.30
2022-08-19T17:48:53.116Z,28.30
2022-08-19T17:54:00.942Z,28.63
2022-08-19T17:59:06.380Z,28.75
2022-08-19T18:04:13.803Z,28.05
2022-08-19T18:09:20.736Z,26.07
2022-08-19T18:14:33.999Z,23.80
2022-08-19T18:19:43.509Z,22.15
2022-08-19T18:24:49.875Z,24.20
2022-08-19T18:29:59.442Z,21.38
2022-08-19T18:35:11.161Z,26.70
2022-08-19T18:40:39.895Z,27.00
2022-08-19T18:46:02.751Z,31.73
2022-08-19T18:51:10.097Z,27.55
2022-08-19T18:56:20.304Z,26.60
2022-08-19T19:01:33.418Z,31.48
2022-08-19T19:06:41.497Z,27.73
2022-08-19T19:11:50.399Z,28.83
2022-08-19T19:16:55.268Z,33.30
2022-08-19T19:22:01.094Z,34.38
2022-08-19T19:27:10.228Z,37.20
2022-08-19T19:32:21.907Z,34.38
2022-08-19T19:37:27.348Z,33.58
2022-08-19T19:42:33.438Z,34.30
2022-08-19T19:47:39.493Z,39.00
2022-08-19T19:52:46.663Z,34.45
2022-08-19T19:57:53.618Z,37.03
2022-08-19T20:02:59.324Z,43.72
2022-08-19T20:08:21.598Z,39.22
2022-08-19T20:13:27.791Z,45.50
2022-08-19T20:18:32.371Z,34.25
2022-08-19T20:23:37.455Z,45.47
2022-08-19T20:28:48.387Z,49.97
2022-08-19T20:34:04.706Z,43.03
2022-08-19T20:39:11.011Z,50.40
2022-08-19T20:44:19.082Z,45.17
2022-08-19T20:49:27.168Z,46.95
2022-08-19T20:54:32.170Z,42.67
2022-08-19T20:59:38.221Z,37.78
2022-08-19T21:04:42.709Z,27.60
2022-08-19T21:09:46.979Z,24.48
2022-08-19T21:14:53.875Z,25.30
2022-08-19T21:19:58.264Z,26.20
2022-08-19T21:25:03.629Z,33.57
2022-08-19T21:30:11.700Z,30.77
2022-08-19T21:35:16.294Z,24.77
2022-08-19T21:40:21.877Z,25.00
2022-08-19T21:45:27.799Z,41.08
2022-08-19T21:50:32.939Z,34.83
2022-08-19T21:55:37.710Z,30.63
2022-08-19T22:00:43.911Z,28.17
2022-08-19T22:05:50.869Z,29.43
2022-08-19T22:10:55.800Z,38.08
2022-08-19T22:16:03.306Z,39.10
2022-08-19T22:21:11.880Z,39.88
2022-08-19T22:26:18.788Z,39.63
2022-08-19T22:31:24.761Z,37.35
2022-08-19T22:36:31.661Z,37.83
2022-08-19T22:41:37.594Z,39.42
2022-08-19T22:46:43.387Z,37.85
2022-08-19T22:52:05.280Z,34.20
2022-08-19T22:57:11.650Z,38.83
2022-08-19T23:02:23.504Z,38.20
2022-08-19T23:07:28.000Z,38.50
2022-08-19T23:12:38.023Z,30.45
2022-08-19T23:17:44.694Z,29.48
2022-08-19T23:22:51.577Z,35.38
2022-08-19T23:28:14.603Z,35.92
2022-08-19T23:33:25.369Z,33.60
2022-08-19T23:38:33.144Z,27.38
2022-08-19T23:43:39.636Z,30.95
2022-08-19T23:48:46.550Z,29.73
2022-08-19T23:53:51.419Z,27.27
2022-08-19T23:58:56.037Z,30.65
